Bryce Canyon Airport
KBCE : now visible

Airfield :











YOU CAN JOIN US ON...

 
LOGIN :

Register | Disclaimer

   EN    FR    IT 

 









Legend :    VFR   Marginal VFR   IFR   Intensive IFR   Very Intensive IFR
Visi :
Ceiling :
>= 8 km
>= 3000ft
5 to 8 km
1000 to 3000 ft
1500m to 5 km
500 to 1000 ft
800 to 1500m
200 to 500 ft
< 800m
< 200 ft
Symbols :   Thunderstorms  Fog  Heavy snow  Heavy precipitations  Wind > 20 kt






- Airport Elevation : 7590 ft


KBCE - Bryce Canyon

CURRENT METAR :
  • 220253Z AUTO 23007KT 10SM CLR 11/M11 A3008 RMK AO2 SLP110 T01111111 51004

EXPIRED METARs :
  • 220153Z AUTO 24010KT 10SM CLR 12/M12 A3008 RMK AO2 SLP118 T01221117
  • 220053Z AUTO 23010KT 10SM CLR 14/M12 A3007 RMK AO2 SLP114 T01441117

TAF KBCE
Valid from the 22 at 00:00 until the 23 at 00:00 UTC


212355Z 2200/2224 26011KT P6SM SKC
FM221800 28014G25KT P6SM SKC
KZLC FIR / North America



MET'MAP, your aeronautical weather chart ! - Copyright ORBIFLY December 2007 - Disclaimer

ORBIFLY MET'MAP TEAM :

Programming & Development : Alexandra Zaïnal
Concept & original design : Baudouin d'Aumeries
Assistance for programming : Marc-Olivier Méhu
Technical & hardware support : Manuel Goepfert

Contact : metmap@orbifly.com




SOURCES & CREDITS :

   NOAA       Earth
Advisory